Airport View

Enter AWOS ICAO identifier for current METAR.

ex. KFNL

KGNT 191230Z AUTO 19003KT 10SM BKN120 06/M04 A3002 RMK AO2 T00551044

19 May 2019 12:33

Frequency: 118.3

Phone: 505-287-9890

Other Area AWOS: KGUP - KAEG - KE80 - KABQ

TAF KGUP 191140Z 1912/2012 VRB03KT P6SM SCT120 BKN150 FM191600 22012G20KT P6SM BKN150 FM191900 22026G36KT P6SM BKN150 FM200300 23016G24KT P6SM BKN070 FM200600 21007KT P6SM BKN050